createdAt,value
2019-03-21T00:01:16.121Z,3.94
2019-03-21T00:03:47.079Z,3.99
2019-03-21T00:06:18.435Z,4.07
2019-03-21T00:08:48.866Z,3.94
2019-03-21T00:11:53.919Z,3.93
2019-03-21T00:14:31.902Z,3.89
2019-03-21T00:17:02.117Z,3.95
2019-03-21T00:19:32.192Z,3.95
2019-03-21T00:22:02.099Z,3.95
2019-03-21T00:24:32.063Z,4.00
2019-03-21T00:27:02.231Z,3.99
2019-03-21T00:29:32.151Z,3.83
2019-03-21T00:32:02.101Z,3.83
2019-03-21T00:34:32.291Z,3.55
2019-03-21T00:37:02.316Z,3.65
2019-03-21T00:39:33.217Z,3.67
2019-03-21T00:42:03.403Z,3.72
2019-03-21T00:44:33.482Z,3.59
2019-03-21T00:47:03.993Z,3.73
2019-03-21T00:49:33.976Z,3.67
2019-03-21T00:52:04.581Z,3.66
2019-03-21T00:54:34.584Z,3.68
2019-03-21T00:57:04.688Z,3.65
2019-03-21T00:59:34.696Z,3.52
2019-03-21T01:02:04.812Z,3.50
2019-03-21T01:04:35.525Z,3.32
2019-03-21T01:07:06.572Z,3.42
2019-03-21T01:09:36.702Z,3.36
2019-03-21T01:12:06.899Z,3.21
2019-03-21T01:14:36.901Z,3.18
2019-03-21T01:17:07.117Z,3.29
2019-03-21T01:19:37.139Z,3.35
2019-03-21T01:22:07.080Z,3.35
2019-03-21T01:24:37.207Z,3.40
2019-03-21T01:27:07.072Z,3.49
2019-03-21T01:29:37.304Z,3.38
2019-03-21T01:32:07.318Z,3.04
2019-03-21T01:34:37.412Z,3.09
2019-03-21T01:37:07.405Z,3.28
2019-03-21T01:39:37.622Z,3.42
2019-03-21T01:42:07.604Z,3.48
2019-03-21T01:44:41.255Z,3.35
2019-03-21T01:47:09.611Z,3.34
2019-03-21T01:49:39.807Z,3.22
2019-03-21T01:52:09.826Z,3.28
2019-03-21T01:54:40.114Z,3.12
2019-03-21T01:57:10.089Z,2.97
2019-03-21T01:59:40.002Z,3.02
2019-03-21T02:02:10.134Z,3.22
2019-03-21T02:04:40.106Z,3.25
2019-03-21T02:07:10.125Z,3.25
2019-03-21T02:09:40.255Z,3.26
2019-03-21T02:12:10.267Z,3.22
2019-03-21T02:14:40.181Z,3.19
2019-03-21T02:17:10.290Z,3.22
2019-03-21T02:19:40.372Z,3.18
2019-03-21T02:22:10.615Z,3.14
2019-03-21T02:24:40.697Z,3.12
2019-03-21T02:27:10.718Z,3.10
2019-03-21T02:29:40.754Z,3.12
2019-03-21T02:32:11.025Z,3.12
2019-03-21T02:34:40.913Z,3.05
2019-03-21T02:37:10.959Z,2.99
2019-03-21T02:39:41.423Z,3.09
2019-03-21T02:42:11.444Z,2.99
2019-03-21T02:44:41.587Z,2.99
2019-03-21T02:47:11.627Z,3.00
2019-03-21T02:49:41.665Z,3.01
2019-03-21T02:52:11.963Z,2.93
2019-03-21T02:54:42.083Z,2.83
2019-03-21T02:57:12.066Z,2.92
2019-03-21T02:59:42.305Z,2.87
2019-03-21T03:02:12.353Z,2.91
2019-03-21T03:04:42.259Z,2.87
2019-03-21T03:07:12.313Z,2.84
2019-03-21T03:09:42.407Z,2.84
2019-03-21T03:12:12.456Z,2.80
2019-03-21T03:14:42.453Z,2.82
2019-03-21T03:17:12.683Z,2.75
2019-03-21T03:19:42.713Z,2.85
2019-03-21T03:22:12.935Z,2.75
2019-03-21T03:24:42.946Z,2.66
2019-03-21T03:27:13.032Z,2.53
2019-03-21T03:29:43.078Z,2.50
2019-03-21T03:32:13.170Z,2.54
2019-03-21T03:34:43.178Z,2.46
2019-03-21T03:37:13.216Z,2.37
2019-03-21T03:39:43.260Z,2.32
2019-03-21T03:42:13.658Z,2.29
2019-03-21T03:44:43.679Z,2.36
2019-03-21T03:47:13.725Z,2.39
2019-03-21T03:49:43.711Z,2.32
2019-03-21T03:52:13.775Z,2.41
2019-03-21T03:54:43.759Z,2.45
2019-03-21T03:57:13.870Z,2.42
2019-03-21T03:59:44.160Z,2.54
2019-03-21T04:02:14.396Z,2.50
2019-03-21T04:04:44.551Z,2.36
2019-03-21T04:07:14.549Z,2.18
2019-03-21T04:09:44.600Z,2.34
2019-03-21T04:12:15.188Z,2.28
2019-03-21T04:14:45.201Z,2.33
2019-03-21T04:17:15.336Z,2.27
2019-03-21T04:19:45.567Z,2.18
2019-03-21T04:22:15.581Z,2.16
2019-03-21T04:24:46.044Z,2.22
2019-03-21T04:27:16.142Z,2.28
2019-03-21T04:29:46.128Z,2.06
2019-03-21T04:32:16.200Z,2.05
2019-03-21T04:34:46.278Z,2.31
2019-03-21T04:37:16.549Z,2.42
2019-03-21T04:39:46.617Z,2.27
2019-03-21T04:42:16.622Z,2.34
2019-03-21T04:44:46.867Z,2.39
2019-03-21T04:47:17.198Z,2.44
2019-03-21T04:49:47.116Z,2.45
2019-03-21T04:52:17.134Z,2.23
2019-03-21T04:54:47.170Z,1.97
2019-03-21T04:57:17.374Z,1.95
2019-03-21T04:59:47.487Z,2.02
2019-03-21T05:02:17.809Z,1.78
2019-03-21T05:04:47.853Z,1.93
2019-03-21T05:07:17.841Z,2.00
2019-03-21T05:09:47.966Z,2.00
2019-03-21T05:12:18.084Z,2.10
2019-03-21T05:14:48.211Z,2.27
2019-03-21T05:17:18.354Z,2.36
2019-03-21T05:19:48.474Z,2.59
2019-03-21T05:22:18.668Z,2.66
2019-03-21T05:24:48.765Z,2.64
2019-03-21T05:27:18.938Z,2.50
2019-03-21T05:29:49.056Z,2.38
2019-03-21T05:32:19.062Z,2.35
2019-03-21T05:34:49.083Z,2.32
2019-03-21T05:37:19.190Z,2.35
2019-03-21T05:39:49.314Z,2.30
2019-03-21T05:42:21.611Z,2.21
2019-03-21T05:44:51.719Z,2.27
2019-03-21T05:47:21.830Z,2.29
2019-03-21T05:49:52.013Z,2.44
2019-03-21T05:52:22.155Z,2.44
2019-03-21T05:54:52.173Z,2.56
2019-03-21T05:57:22.318Z,2.32
2019-03-21T05:59:52.518Z,2.50
2019-03-21T06:02:22.742Z,2.51
2019-03-21T06:04:52.769Z,2.55
2019-03-21T06:07:43.541Z,2.51
2019-03-21T06:10:15.052Z,2.44
2019-03-21T06:12:45.174Z,2.56
2019-03-21T06:15:17.573Z,2.68
2019-03-21T06:17:55.385Z,2.82
2019-03-21T06:21:04.841Z,2.80
2019-03-21T06:24:00.328Z,2.80
2019-03-21T06:26:45.413Z,3.01
2019-03-21T06:29:15.454Z,2.78
2019-03-21T06:31:45.505Z,3.00
2019-03-21T06:34:15.489Z,3.21
2019-03-21T06:36:45.600Z,3.23
2019-03-21T06:39:15.656Z,3.31
2019-03-21T06:41:45.700Z,3.30
2019-03-21T06:44:15.624Z,3.39
2019-03-21T06:46:49.609Z,3.58
2019-03-21T06:49:17.606Z,3.69
2019-03-21T06:51:47.683Z,3.86
2019-03-21T06:54:17.678Z,3.88
2019-03-21T06:56:47.733Z,4.02
2019-03-21T06:59:17.642Z,4.12
2019-03-21T07:01:47.576Z,4.25
2019-03-21T07:04:17.472Z,4.31
2019-03-21T07:06:47.592Z,4.24
2019-03-21T07:09:17.724Z,4.46
2019-03-21T07:11:47.631Z,4.57
2019-03-21T07:14:17.852Z,4.41
2019-03-21T07:16:47.838Z,4.41
2019-03-21T07:19:17.782Z,4.61
2019-03-21T07:21:47.769Z,4.71
2019-03-21T07:24:17.730Z,4.76
2019-03-21T07:26:47.715Z,4.89
2019-03-21T07:29:17.853Z,5.05
2019-03-21T07:31:47.952Z,5.20
2019-03-21T07:34:18.139Z,5.18
2019-03-21T07:36:48.181Z,5.25
2019-03-21T07:39:18.109Z,5.43
2019-03-21T07:41:48.268Z,5.53
2019-03-21T07:44:18.229Z,5.36
2019-03-21T07:46:48.181Z,5.65
2019-03-21T07:49:18.091Z,5.83
2019-03-21T07:51:48.220Z,5.74
2019-03-21T07:54:18.213Z,5.65
2019-03-21T07:56:48.232Z,5.29
2019-03-21T07:59:18.264Z,5.59
2019-03-21T08:01:48.266Z,5.85
2019-03-21T08:04:18.208Z,6.15
2019-03-21T08:06:48.217Z,6.22
2019-03-21T08:09:18.235Z,6.33
2019-03-21T08:11:48.424Z,6.52
2019-03-21T08:14:18.374Z,6.59
2019-03-21T08:16:48.384Z,6.33
2019-03-21T08:19:18.414Z,6.69
2019-03-21T08:21:48.506Z,7.04
2019-03-21T08:24:18.643Z,7.09
2019-03-21T08:26:48.646Z,7.22
2019-03-21T08:29:18.767Z,7.20
2019-03-21T08:31:48.826Z,7.46
2019-03-21T08:34:18.898Z,7.80
2019-03-21T08:36:48.824Z,7.75
2019-03-21T08:39:18.741Z,7.74
2019-03-21T08:41:48.769Z,7.80
2019-03-21T08:44:18.874Z,7.95
2019-03-21T08:46:48.842Z,8.04
2019-03-21T08:49:18.803Z,8.14
2019-03-21T08:51:48.704Z,8.24
2019-03-21T08:54:18.659Z,8.28
2019-03-21T08:56:48.777Z,8.46
2019-03-21T08:59:22.025Z,8.66
2019-03-21T09:01:52.574Z,8.66
2019-03-21T09:04:22.619Z,8.82
2019-03-21T09:06:52.805Z,9.15
2019-03-21T09:09:23.326Z,9.15
2019-03-21T09:11:53.234Z,9.40
2019-03-21T09:14:23.205Z,9.52
2019-03-21T09:16:53.120Z,9.71
2019-03-21T09:19:23.143Z,9.92
2019-03-21T09:21:53.050Z,10.01
2019-03-21T09:24:23.291Z,10.01
2019-03-21T09:26:53.293Z,10.23
2019-03-21T09:29:23.199Z,10.26
2019-03-21T09:31:53.113Z,10.46
2019-03-21T09:34:23.113Z,10.60
2019-03-21T09:36:53.258Z,10.66
2019-03-21T09:39:23.431Z,10.55
2019-03-21T09:41:53.380Z,10.68
2019-03-21T09:44:25.036Z,10.90
2019-03-21T09:46:55.051Z,10.94
2019-03-21T09:49:25.209Z,10.97
2019-03-21T09:51:55.210Z,10.95
2019-03-21T09:54:25.162Z,10.98
2019-03-21T09:56:55.131Z,11.37
2019-03-21T09:59:25.044Z,11.45
2019-03-21T10:01:54.993Z,11.59
2019-03-21T10:04:24.895Z,11.74
2019-03-21T10:06:54.856Z,11.84
2019-03-21T10:09:24.907Z,12.05
2019-03-21T10:11:54.945Z,12.22
2019-03-21T10:14:25.063Z,12.43
2019-03-21T10:16:55.076Z,12.49
2019-03-21T10:19:25.110Z,12.65
2019-03-21T10:21:55.195Z,12.77
2019-03-21T10:24:25.164Z,12.69
2019-03-21T10:26:55.072Z,12.72
2019-03-21T10:29:25.098Z,12.93
2019-03-21T10:31:55.253Z,13.04
2019-03-21T10:34:25.286Z,13.24
2019-03-21T10:36:55.210Z,13.42
2019-03-21T10:39:25.278Z,13.44
2019-03-21T10:41:55.200Z,13.58
2019-03-21T10:44:25.275Z,13.66
2019-03-21T10:46:55.284Z,13.62
2019-03-21T10:49:25.320Z,13.92
2019-03-21T10:51:55.535Z,14.06
2019-03-21T10:54:25.536Z,14.15
2019-03-21T10:56:55.567Z,14.21
2019-03-21T10:59:25.567Z,14.43
2019-03-21T11:02:06.676Z,14.41
2019-03-21T11:04:27.427Z,14.48
2019-03-21T11:07:02.368Z,14.56
2019-03-21T11:09:32.505Z,14.69
2019-03-21T11:12:02.482Z,14.82
2019-03-21T11:14:32.417Z,14.86
2019-03-21T11:17:02.361Z,14.91
2019-03-21T11:19:32.345Z,14.95
2019-03-21T11:22:06.708Z,14.94
2019-03-21T11:24:33.975Z,14.81
2019-03-21T11:27:04.067Z,15.08
2019-03-21T11:29:34.119Z,15.26
2019-03-21T11:32:04.039Z,15.25
2019-03-21T11:34:35.779Z,15.35
2019-03-21T11:37:05.930Z,15.48
2019-03-21T11:39:36.297Z,15.71
2019-03-21T11:42:06.541Z,15.73
2019-03-21T11:44:36.623Z,15.98
2019-03-21T11:47:07.160Z,15.95
2019-03-21T11:49:38.078Z,15.77
2019-03-21T11:52:17.815Z,15.58
2019-03-21T11:54:39.621Z,15.97
2019-03-21T11:57:09.608Z,16.43
2019-03-21T11:59:51.093Z,16.58
2019-03-21T12:02:11.480Z,16.94
2019-03-21T12:04:41.400Z,17.12
2019-03-21T12:07:11.588Z,17.62
2019-03-21T12:09:41.623Z,17.81
2019-03-21T12:12:11.972Z,17.79
2019-03-21T12:14:42.054Z,18.50
2019-03-21T12:17:12.966Z,18.97
2019-03-21T12:19:43.062Z,19.19
2019-03-21T12:22:13.012Z,19.99
2019-03-21T12:24:43.034Z,20.44
2019-03-21T12:27:12.980Z,20.93
2019-03-21T12:29:43.005Z,21.01
2019-03-21T12:32:12.967Z,21.00
2019-03-21T12:34:43.149Z,21.01
2019-03-21T12:37:13.240Z,20.85
2019-03-21T12:39:43.244Z,21.67
2019-03-21T12:42:13.180Z,22.12
2019-03-21T12:44:43.278Z,23.13
2019-03-21T12:47:13.238Z,23.22
2019-03-21T12:49:45.585Z,23.79
2019-03-21T12:52:15.656Z,24.28
2019-03-21T12:54:45.849Z,23.91
2019-03-21T12:57:15.863Z,25.10
2019-03-21T12:59:46.161Z,23.55
2019-03-21T13:02:16.163Z,24.46
2019-03-21T13:04:46.221Z,25.38
2019-03-21T13:07:16.958Z,25.69
2019-03-21T13:09:47.175Z,26.45
2019-03-21T13:12:17.112Z,27.27
2019-03-21T13:14:47.125Z,27.55
2019-03-21T13:17:17.361Z,25.97
2019-03-21T13:19:47.749Z,27.34
2019-03-21T13:22:17.662Z,27.91
2019-03-21T13:24:47.577Z,28.52
2019-03-21T13:27:17.587Z,27.21
2019-03-21T13:29:47.639Z,25.72
2019-03-21T13:32:17.579Z,25.82
2019-03-21T13:34:47.749Z,24.67
2019-03-21T13:37:17.788Z,26.77
2019-03-21T13:39:48.074Z,27.27
2019-03-21T13:42:18.026Z,28.13
2019-03-21T13:44:47.938Z,27.86
2019-03-21T13:47:17.919Z,27.15
2019-03-21T13:49:47.976Z,27.64
2019-03-21T13:52:17.934Z,28.41
2019-03-21T13:54:47.851Z,27.15
2019-03-21T13:57:17.921Z,27.87
2019-03-21T13:59:47.847Z,29.26
2019-03-21T14:02:17.842Z,28.22
2019-03-21T14:04:47.788Z,28.39
2019-03-21T14:07:18.010Z,25.28
2019-03-21T14:09:48.033Z,26.91
2019-03-21T14:12:17.936Z,25.68
2019-03-21T14:14:47.922Z,26.32
2019-03-21T14:17:22.189Z,25.12
2019-03-21T14:19:49.739Z,26.32
2019-03-21T14:22:21.369Z,25.83
2019-03-21T14:24:51.372Z,26.30
2019-03-21T14:27:21.307Z,26.56
2019-03-21T14:30:00.814Z,26.13
2019-03-21T14:32:23.057Z,23.78
2019-03-21T14:34:53.025Z,23.01
2019-03-21T14:37:22.933Z,21.79
2019-03-21T14:39:52.972Z,20.46
2019-03-21T14:42:22.982Z,20.65
2019-03-21T14:44:52.919Z,20.32
2019-03-21T14:47:22.810Z,19.69
2019-03-21T14:49:53.219Z,19.61
2019-03-21T14:52:23.545Z,19.42
2019-03-21T14:54:53.595Z,19.25
2019-03-21T14:57:23.805Z,18.97
2019-03-21T14:59:53.832Z,19.02
2019-03-21T15:02:23.948Z,18.98
2019-03-21T15:04:55.442Z,18.71
2019-03-21T15:07:25.690Z,18.35
2019-03-21T15:09:55.642Z,18.23
2019-03-21T15:12:26.038Z,18.41
2019-03-21T15:14:56.014Z,18.01
2019-03-21T15:17:26.288Z,18.05
2019-03-21T15:19:56.342Z,17.95
2019-03-21T15:22:26.315Z,17.67
2019-03-21T15:24:56.274Z,17.58
2019-03-21T15:27:26.598Z,17.58
2019-03-21T15:29:56.604Z,17.49
2019-03-21T15:32:26.625Z,17.21
2019-03-21T15:34:56.637Z,17.22
2019-03-21T15:37:26.699Z,17.18
2019-03-21T15:39:56.934Z,17.24
2019-03-21T15:42:26.889Z,17.05
2019-03-21T15:45:10.325Z,17.22
2019-03-21T15:47:28.747Z,16.97
2019-03-21T15:49:58.716Z,16.95
2019-03-21T15:52:28.688Z,16.91
2019-03-21T15:54:58.751Z,16.80
2019-03-21T15:57:28.762Z,16.74
2019-03-21T15:59:59.143Z,16.91
2019-03-21T16:02:29.163Z,16.84
2019-03-21T16:04:59.300Z,16.76
2019-03-21T16:07:29.456Z,16.79
2019-03-21T16:09:59.708Z,16.61
2019-03-21T16:12:29.696Z,16.61
2019-03-21T16:14:59.866Z,16.75
2019-03-21T16:17:30.127Z,17.01
2019-03-21T16:20:00.196Z,17.35
2019-03-21T16:22:31.133Z,17.55
2019-03-21T16:25:01.181Z,17.26
2019-03-21T16:27:31.158Z,17.14
2019-03-21T16:30:01.136Z,17.01
2019-03-21T16:32:31.335Z,17.02
2019-03-21T16:35:01.489Z,16.83
2019-03-21T16:37:31.433Z,16.67
2019-03-21T16:40:01.492Z,16.64
2019-03-21T16:42:31.716Z,16.43
2019-03-21T16:45:01.787Z,16.44
2019-03-21T16:47:31.761Z,16.38
2019-03-21T16:50:01.679Z,16.51
2019-03-21T16:52:31.989Z,16.37
2019-03-21T16:55:01.989Z,16.24
2019-03-21T16:57:31.946Z,16.16
2019-03-21T17:00:01.927Z,16.13
2019-03-21T17:02:31.945Z,16.13
2019-03-21T17:05:01.900Z,16.11
2019-03-21T17:07:31.822Z,16.00
2019-03-21T17:10:01.906Z,15.96
2019-03-21T17:12:32.045Z,15.83
2019-03-21T17:15:02.199Z,15.73
2019-03-21T17:17:32.171Z,15.62
2019-03-21T17:20:03.679Z,15.52
2019-03-21T17:22:34.274Z,15.35
2019-03-21T17:25:04.452Z,15.24
2019-03-21T17:27:34.420Z,15.20
2019-03-21T17:30:04.811Z,15.09
2019-03-21T17:32:35.059Z,15.04
2019-03-21T17:35:05.557Z,14.92
2019-03-21T17:37:35.892Z,14.82
2019-03-21T17:40:07.410Z,14.68
2019-03-21T17:42:37.355Z,14.65
2019-03-21T17:45:11.155Z,14.43
2019-03-21T17:47:41.122Z,14.39
2019-03-21T17:50:11.934Z,14.37
2019-03-21T17:52:41.946Z,14.39
2019-03-21T17:55:12.270Z,14.34
2019-03-21T17:57:42.575Z,14.38
2019-03-21T18:00:15.936Z,14.29
2019-03-21T18:02:46.161Z,14.34
2019-03-21T18:05:16.232Z,14.27
2019-03-21T18:07:46.150Z,14.18
2019-03-21T18:10:28.675Z,14.07
2019-03-21T18:12:59.296Z,14.06
2019-03-21T18:15:29.425Z,13.84
2019-03-21T18:17:59.742Z,13.74
2019-03-21T18:20:30.187Z,13.66
2019-03-21T18:23:00.597Z,13.59
2019-03-21T18:25:30.504Z,13.69
2019-03-21T18:28:00.770Z,13.67
2019-03-21T18:30:30.972Z,13.68
2019-03-21T18:33:00.974Z,13.44
2019-03-21T18:35:31.031Z,13.37
2019-03-21T18:38:00.991Z,13.33
2019-03-21T18:40:31.000Z,13.29
2019-03-21T18:43:00.951Z,13.24
2019-03-21T18:45:30.879Z,13.19
2019-03-21T18:48:00.986Z,13.11
2019-03-21T18:50:30.968Z,13.02
2019-03-21T18:53:01.078Z,12.87
2019-03-21T18:55:31.526Z,12.72
2019-03-21T18:58:01.567Z,12.71
2019-03-21T19:00:31.549Z,12.65
2019-03-21T19:03:01.481Z,12.74
2019-03-21T19:05:31.420Z,12.56
2019-03-21T19:08:01.337Z,12.53
2019-03-21T19:10:31.350Z,12.39
2019-03-21T19:13:01.645Z,12.32
2019-03-21T19:15:31.622Z,12.20
2019-03-21T19:18:01.681Z,12.20
2019-03-21T19:20:31.850Z,12.08
2019-03-21T19:23:02.067Z,11.92
2019-03-21T19:25:32.046Z,11.84
2019-03-21T19:28:02.082Z,11.72
2019-03-21T19:30:32.090Z,11.77
2019-03-21T19:33:02.852Z,11.60
2019-03-21T19:35:32.810Z,11.56
2019-03-21T19:38:02.863Z,11.55
2019-03-21T19:40:32.994Z,11.16
2019-03-21T19:43:02.995Z,11.17
2019-03-21T19:45:33.038Z,11.03
2019-03-21T19:48:03.314Z,10.92
2019-03-21T19:50:33.353Z,10.93
2019-03-21T19:53:03.265Z,10.72
2019-03-21T19:55:33.328Z,10.63
2019-03-21T19:58:03.681Z,10.58
2019-03-21T20:00:33.813Z,10.48
2019-03-21T20:03:03.770Z,10.47
2019-03-21T20:05:33.695Z,10.45
2019-03-21T20:08:03.707Z,10.41
2019-03-21T20:10:33.703Z,10.45
2019-03-21T20:13:03.936Z,10.34
2019-03-21T20:15:33.881Z,10.25
2019-03-21T20:18:03.847Z,10.09
2019-03-21T20:20:33.884Z,10.03
2019-03-21T20:23:04.100Z,9.95
2019-03-21T20:25:42.752Z,9.86
2019-03-21T20:28:06.026Z,9.81
2019-03-21T20:30:35.942Z,9.87
2019-03-21T20:33:06.325Z,9.83
2019-03-21T20:35:36.360Z,9.83
2019-03-21T20:38:06.343Z,9.90
2019-03-21T20:40:38.997Z,9.81
2019-03-21T20:43:08.230Z,9.81
2019-03-21T20:45:38.248Z,9.81
2019-03-21T20:48:08.375Z,9.80
2019-03-21T20:50:38.359Z,9.78
2019-03-21T20:53:08.428Z,9.78
2019-03-21T20:55:38.377Z,9.70
2019-03-21T20:58:08.326Z,9.66
2019-03-21T21:00:38.585Z,9.66
2019-03-21T21:03:08.686Z,9.43
2019-03-21T21:05:38.745Z,9.43
2019-03-21T21:08:08.715Z,9.44
2019-03-21T21:10:38.643Z,9.51
2019-03-21T21:13:08.861Z,9.51
2019-03-21T21:15:39.085Z,9.33
2019-03-21T21:18:09.189Z,9.33
2019-03-21T21:20:39.302Z,9.52
2019-03-21T21:23:11.112Z,9.23
2019-03-21T21:25:41.366Z,9.09
2019-03-21T21:28:11.412Z,9.02
2019-03-21T21:30:41.734Z,9.04
2019-03-21T21:33:11.775Z,9.04
2019-03-21T21:35:41.873Z,8.95
2019-03-21T21:38:12.131Z,8.98
2019-03-21T21:40:43.453Z,9.01
2019-03-21T21:43:13.402Z,8.81
2019-03-21T21:45:43.493Z,8.68
2019-03-21T21:48:13.574Z,8.68
2019-03-21T21:50:43.546Z,8.77
2019-03-21T21:53:13.442Z,8.49
2019-03-21T21:55:43.669Z,8.49
2019-03-21T21:58:13.774Z,8.55
2019-03-21T22:00:43.724Z,8.58
2019-03-21T22:03:13.718Z,8.51
2019-03-21T22:05:43.734Z,8.52
2019-03-21T22:08:13.779Z,8.44
2019-03-21T22:10:43.735Z,8.42
2019-03-21T22:13:13.719Z,8.30
2019-03-21T22:15:43.798Z,8.38
2019-03-21T22:18:13.719Z,8.21
2019-03-21T22:20:43.628Z,8.17
2019-03-21T22:23:13.786Z,8.18
2019-03-21T22:25:43.682Z,8.15
2019-03-21T22:28:13.893Z,8.12
2019-03-21T22:30:44.318Z,8.04
2019-03-21T22:33:14.226Z,8.04
2019-03-21T22:35:44.354Z,7.95
2019-03-21T22:38:14.250Z,7.93
2019-03-21T22:40:44.325Z,7.90
2019-03-21T22:43:14.399Z,7.81
2019-03-21T22:45:44.358Z,7.75
2019-03-21T22:48:14.274Z,7.81
2019-03-21T22:50:44.340Z,7.85
2019-03-21T22:53:14.295Z,7.80
2019-03-21T22:55:44.342Z,7.76
2019-03-21T22:58:14.327Z,7.56
2019-03-21T23:00:47.628Z,7.57
2019-03-21T23:03:17.748Z,7.50
2019-03-21T23:05:47.640Z,7.57
2019-03-21T23:08:17.743Z,7.44
2019-03-21T23:10:47.693Z,7.42
2019-03-21T23:13:17.599Z,7.47
2019-03-21T23:15:47.630Z,7.49
2019-03-21T23:18:17.544Z,7.40
2019-03-21T23:20:49.129Z,7.38
2019-03-21T23:23:20.486Z,7.39
2019-03-21T23:25:51.614Z,7.30
2019-03-21T23:28:23.382Z,7.16
2019-03-21T23:30:54.718Z,7.16
2019-03-21T23:33:26.182Z,7.16
2019-03-21T23:35:57.928Z,6.95
2019-03-21T23:38:29.492Z,6.89
2019-03-21T23:41:00.705Z,6.81
2019-03-21T23:43:32.188Z,6.83
2019-03-21T23:46:03.395Z,6.88
2019-03-21T23:48:34.552Z,6.85
2019-03-21T23:51:06.091Z,6.99
2019-03-21T23:53:37.493Z,6.87
2019-03-21T23:56:08.823Z,6.92
2019-03-21T23:58:40.134Z,6.85
